sensor_id;sensor_type;location;lat;lon;timestamp;P1;durP1;ratioP1;P2;durP2;ratioP2
17504;SDS011;8870;50.950;11.762;2022-09-25T00:06:47;3.88;;;2.95;;
17504;SDS011;8870;50.950;11.762;2022-09-25T00:12:19;4.80;;;3.97;;
17504;SDS011;8870;50.950;11.762;2022-09-25T00:17:39;5.03;;;3.80;;
17504;SDS011;8870;50.950;11.762;2022-09-25T00:23:11;4.20;;;3.80;;
17504;SDS011;8870;50.950;11.762;2022-09-25T00:28:29;3.65;;;3.35;;
17504;SDS011;8870;50.950;11.762;2022-09-25T00:34:03;5.68;;;3.70;;
17504;SDS011;8870;50.950;11.762;2022-09-25T00:39:22;4.00;;;3.35;;
17504;SDS011;8870;50.950;11.762;2022-09-25T00:44:54;3.55;;;3.25;;
17504;SDS011;8870;50.950;11.762;2022-09-25T00:50:19;4.10;;;3.70;;
17504;SDS011;8870;50.950;11.762;2022-09-25T00:55:58;4.20;;;3.78;;
17504;SDS011;8870;50.950;11.762;2022-09-25T01:01:20;6.18;;;5.57;;
17504;SDS011;8870;50.950;11.762;2022-09-25T01:06:53;6.18;;;5.50;;
17504;SDS011;8870;50.950;11.762;2022-09-25T01:12:12;5.70;;;5.20;;
17504;SDS011;8870;50.950;11.762;2022-09-25T01:17:44;5.22;;;4.72;;
17504;SDS011;8870;50.950;11.762;2022-09-25T01:23:19;5.10;;;4.60;;
17504;SDS011;8870;50.950;11.762;2022-09-25T01:29:10;5.93;;;4.50;;
17504;SDS011;8870;50.950;11.762;2022-09-25T01:34:35;5.22;;;3.90;;
17504;SDS011;8870;50.950;11.762;2022-09-25T01:40:15;4.90;;;4.40;;
17504;SDS011;8870;50.950;11.762;2022-09-25T01:45:45;5.15;;;4.40;;
17504;SDS011;8870;50.950;11.762;2022-09-25T01:51:23;4.45;;;4.05;;
17504;SDS011;8870;50.950;11.762;2022-09-25T01:56:47;5.47;;;4.47;;
17504;SDS011;8870;50.950;11.762;2022-09-25T02:02:24;7.07;;;4.70;;
17504;SDS011;8870;50.950;11.762;2022-09-25T02:07:47;5.65;;;4.32;;
17504;SDS011;8870;50.950;11.762;2022-09-25T02:13:25;4.27;;;3.87;;
17504;SDS011;8870;50.950;11.762;2022-09-25T02:18:50;5.18;;;4.68;;
17504;SDS011;8870;50.950;11.762;2022-09-25T02:24:34;5.00;;;4.50;;
17504;SDS011;8870;50.950;11.762;2022-09-25T02:30:04;5.88;;;4.70;;
17504;SDS011;8870;50.950;11.762;2022-09-25T02:35:39;5.22;;;4.60;;
17504;SDS011;8870;50.950;11.762;2022-09-25T02:41:00;5.38;;;4.00;;
17504;SDS011;8870;50.950;11.762;2022-09-25T02:46:41;5.50;;;4.80;;
17504;SDS011;8870;50.950;11.762;2022-09-25T02:52:11;5.90;;;4.30;;
17504;SDS011;8870;50.950;11.762;2022-09-25T02:57:48;5.07;;;4.50;;
17504;SDS011;8870;50.950;11.762;2022-09-25T03:03:12;6.63;;;4.78;;
17504;SDS011;8870;50.950;11.762;2022-09-25T03:08:50;4.85;;;4.43;;
17504;SDS011;8870;50.950;11.762;2022-09-25T03:14:26;6.00;;;5.40;;
17504;SDS011;8870;50.950;11.762;2022-09-25T03:19:44;5.95;;;5.25;;
17504;SDS011;8870;50.950;11.762;2022-09-25T03:25:17;9.38;;;6.63;;
17504;SDS011;8870;50.950;11.762;2022-09-25T03:30:37;7.88;;;6.82;;
17504;SDS011;8870;50.950;11.762;2022-09-25T03:36:12;7.35;;;6.65;;
17504;SDS011;8870;50.950;11.762;2022-09-25T03:41:35;6.35;;;5.25;;
17504;SDS011;8870;50.950;11.762;2022-09-25T03:47:06;7.55;;;5.03;;
17504;SDS011;8870;50.950;11.762;2022-09-25T03:52:24;5.85;;;4.80;;
17504;SDS011;8870;50.950;11.762;2022-09-25T03:57:57;4.38;;;3.97;;
17504;SDS011;8870;50.950;11.762;2022-09-25T04:03:16;5.85;;;4.50;;
17504;SDS011;8870;50.950;11.762;2022-09-25T04:08:48;5.30;;;4.47;;
17504;SDS011;8870;50.950;11.762;2022-09-25T04:14:10;4.72;;;4.28;;
17504;SDS011;8870;50.950;11.762;2022-09-25T04:19:41;6.43;;;4.30;;
17504;SDS011;8870;50.950;11.762;2022-09-25T04:25:00;5.20;;;4.70;;
17504;SDS011;8870;50.950;11.762;2022-09-25T04:30:40;5.83;;;4.80;;
17504;SDS011;8870;50.950;11.762;2022-09-25T04:35:59;5.97;;;5.38;;
17504;SDS011;8870;50.950;11.762;2022-09-25T04:41:31;5.07;;;4.57;;
17504;SDS011;8870;50.950;11.762;2022-09-25T04:46:52;5.93;;;4.88;;
17504;SDS011;8870;50.950;11.762;2022-09-25T04:52:25;5.47;;;4.97;;
17504;SDS011;8870;50.950;11.762;2022-09-25T04:57:45;5.25;;;4.60;;
17504;SDS011;8870;50.950;11.762;2022-09-25T05:03:23;6.93;;;5.40;;
17504;SDS011;8870;50.950;11.762;2022-09-25T05:08:41;6.20;;;5.15;;
17504;SDS011;8870;50.950;11.762;2022-09-25T05:14:13;5.93;;;5.13;;
17504;SDS011;8870;50.950;11.762;2022-09-25T05:19:36;5.80;;;5.25;;
17504;SDS011;8870;50.950;11.762;2022-09-25T05:25:08;7.43;;;5.55;;
17504;SDS011;8870;50.950;11.762;2022-09-25T05:30:27;7.15;;;5.60;;
17504;SDS011;8870;50.950;11.762;2022-09-25T05:36:03;8.52;;;5.47;;
17504;SDS011;8870;50.950;11.762;2022-09-25T05:41:22;6.15;;;5.03;;
17504;SDS011;8870;50.950;11.762;2022-09-25T05:46:55;5.03;;;4.53;;
17504;SDS011;8870;50.950;11.762;2022-09-25T05:52:16;5.13;;;4.63;;
17504;SDS011;8870;50.950;11.762;2022-09-25T05:57:47;6.38;;;5.10;;
17504;SDS011;8870;50.950;11.762;2022-09-25T06:03:05;6.55;;;5.00;;
17504;SDS011;8870;50.950;11.762;2022-09-25T06:08:40;5.90;;;5.22;;
17504;SDS011;8870;50.950;11.762;2022-09-25T06:14:00;5.50;;;4.50;;
17504;SDS011;8870;50.950;11.762;2022-09-25T06:19:32;4.60;;;4.20;;
17504;SDS011;8870;50.950;11.762;2022-09-25T06:24:53;5.88;;;4.10;;
17504;SDS011;8870;50.950;11.762;2022-09-25T06:30:26;4.60;;;4.20;;
17504;SDS011;8870;50.950;11.762;2022-09-25T06:35:50;5.15;;;4.38;;
17504;SDS011;8870;50.950;11.762;2022-09-25T06:41:25;6.45;;;4.88;;
17504;SDS011;8870;50.950;11.762;2022-09-25T06:46:47;5.47;;;4.40;;
17504;SDS011;8870;50.950;11.762;2022-09-25T06:52:20;4.78;;;4.20;;
17504;SDS011;8870;50.950;11.762;2022-09-25T06:57:41;5.35;;;4.13;;
17504;SDS011;8870;50.950;11.762;2022-09-25T07:03:12;5.28;;;4.70;;
17504;SDS011;8870;50.950;11.762;2022-09-25T07:08:50;5.88;;;4.85;;
17504;SDS011;8870;50.950;11.762;2022-09-25T07:14:27;5.90;;;5.30;;
17504;SDS011;8870;50.950;11.762;2022-09-25T07:19:47;5.43;;;4.90;;
17504;SDS011;8870;50.950;11.762;2022-09-25T07:25:18;5.93;;;5.13;;
17504;SDS011;8870;50.950;11.762;2022-09-25T07:30:39;4.68;;;4.25;;
17504;SDS011;8870;50.950;11.762;2022-09-25T07:36:13;4.30;;;3.60;;
17504;SDS011;8870;50.950;11.762;2022-09-25T07:41:32;5.53;;;4.50;;
17504;SDS011;8870;50.950;11.762;2022-09-25T07:47:06;4.93;;;4.43;;
17504;SDS011;8870;50.950;11.762;2022-09-25T07:52:29;5.55;;;4.95;;
17504;SDS011;8870;50.950;11.762;2022-09-25T07:58:02;6.65;;;5.18;;
17504;SDS011;8870;50.950;11.762;2022-09-25T08:03:23;6.47;;;5.88;;
17504;SDS011;8870;50.950;11.762;2022-09-25T08:08:55;7.88;;;6.00;;
17504;SDS011;8870;50.950;11.762;2022-09-25T08:14:17;6.88;;;6.18;;
17504;SDS011;8870;50.950;11.762;2022-09-25T08:19:52;7.75;;;5.60;;
17504;SDS011;8870;50.950;11.762;2022-09-25T08:25:10;7.10;;;5.68;;
17504;SDS011;8870;50.950;11.762;2022-09-25T08:30:44;7.85;;;5.90;;
17504;SDS011;8870;50.950;11.762;2022-09-25T08:36:06;6.43;;;5.32;;
17504;SDS011;8870;50.950;11.762;2022-09-25T08:41:41;5.95;;;5.10;;
17504;SDS011;8870;50.950;11.762;2022-09-25T08:47:05;5.80;;;5.20;;
17504;SDS011;8870;50.950;11.762;2022-09-25T08:52:59;5.68;;;5.07;;
17504;SDS011;8870;50.950;11.762;2022-09-25T08:58:24;5.63;;;4.88;;
17504;SDS011;8870;50.950;11.762;2022-09-25T09:04:01;5.18;;;4.60;;
17504;SDS011;8870;50.950;11.762;2022-09-25T09:09:26;4.75;;;4.35;;
17504;SDS011;8870;50.950;11.762;2022-09-25T09:15:06;5.40;;;4.22;;
17504;SDS011;8870;50.950;11.762;2022-09-25T09:20:33;6.78;;;4.30;;
17504;SDS011;8870;50.950;11.762;2022-09-25T09:26:16;5.70;;;4.45;;
17504;SDS011;8870;50.950;11.762;2022-09-25T09:31:43;6.47;;;4.10;;
17504;SDS011;8870;50.950;11.762;2022-09-25T09:37:25;4.47;;;4.07;;
17504;SDS011;8870;50.950;11.762;2022-09-25T09:42:55;5.07;;;4.30;;
17504;SDS011;8870;50.950;11.762;2022-09-25T09:48:32;4.82;;;4.28;;
17504;SDS011;8870;50.950;11.762;2022-09-25T09:53:57;5.50;;;4.15;;
17504;SDS011;8870;50.950;11.762;2022-09-25T09:59:38;5.30;;;4.28;;
17504;SDS011;8870;50.950;11.762;2022-09-25T10:05:14;4.30;;;3.90;;
17504;SDS011;8870;50.950;11.762;2022-09-25T10:10:50;6.05;;;4.03;;
17504;SDS011;8870;50.950;11.762;2022-09-25T10:16:26;4.00;;;3.70;;
17504;SDS011;8870;50.950;11.762;2022-09-25T10:21:46;8.63;;;4.50;;
17504;SDS011;8870;50.950;11.762;2022-09-25T10:27:27;5.28;;;4.28;;
17504;SDS011;8870;50.950;11.762;2022-09-25T10:32:55;4.75;;;3.65;;
17504;SDS011;8870;50.950;11.762;2022-09-25T10:38:31;5.72;;;4.00;;
17504;SDS011;8870;50.950;11.762;2022-09-25T10:43:57;4.30;;;3.75;;
17504;SDS011;8870;50.950;11.762;2022-09-25T10:49:43;3.97;;;3.60;;
17504;SDS011;8870;50.950;11.762;2022-09-25T10:55:20;6.80;;;3.90;;
17504;SDS011;8870;50.950;11.762;2022-09-25T11:00:56;3.95;;;3.65;;
17504;SDS011;8870;50.950;11.762;2022-09-25T11:06:25;4.30;;;3.90;;
17504;SDS011;8870;50.950;11.762;2022-09-25T11:12:03;5.40;;;3.63;;
17504;SDS011;8870;50.950;11.762;2022-09-25T11:17:37;5.40;;;3.47;;
17504;SDS011;8870;50.950;11.762;2022-09-25T11:23:02;6.40;;;3.55;;
17504;SDS011;8870;50.950;11.762;2022-09-25T11:28:49;3.10;;;2.80;;
17504;SDS011;8870;50.950;11.762;2022-09-25T11:34:15;4.22;;;3.00;;
17504;SDS011;8870;50.950;11.762;2022-09-25T11:40:10;3.33;;;2.90;;
17504;SDS011;8870;50.950;11.762;2022-09-25T11:45:57;3.35;;;2.88;;
17504;SDS011;8870;50.950;11.762;2022-09-25T11:51:45;3.45;;;2.78;;
17504;SDS011;8870;50.950;11.762;2022-09-25T11:57:24;3.10;;;2.70;;
17504;SDS011;8870;50.950;11.762;2022-09-25T12:02:54;4.85;;;2.97;;
17504;SDS011;8870;50.950;11.762;2022-09-25T12:08:35;2.67;;;2.28;;
17504;SDS011;8870;50.950;11.762;2022-09-25T12:14:09;3.42;;;2.45;;
17504;SDS011;8870;50.950;11.762;2022-09-25T12:19:58;4.43;;;2.30;;
17504;SDS011;8870;50.950;11.762;2022-09-25T12:25:25;2.53;;;2.20;;
17504;SDS011;8870;50.950;11.762;2022-09-25T12:31:15;2.88;;;2.20;;
17504;SDS011;8870;50.950;11.762;2022-09-25T12:36:40;2.47;;;2.17;;
17504;SDS011;8870;50.950;11.762;2022-09-25T12:42:15;3.75;;;2.00;;
17504;SDS011;8870;50.950;11.762;2022-09-25T12:47:41;2.53;;;2.10;;
17504;SDS011;8870;50.950;11.762;2022-09-25T12:53:20;3.42;;;1.90;;
17504;SDS011;8870;50.950;11.762;2022-09-25T12:58:48;2.33;;;1.90;;
17504;SDS011;8870;50.950;11.762;2022-09-25T13:04:32;3.88;;;2.00;;
17504;SDS011;8870;50.950;11.762;2022-09-25T13:09:59;3.33;;;2.10;;
17504;SDS011;8870;50.950;11.762;2022-09-25T13:15:37;2.42;;;1.83;;
17504;SDS011;8870;50.950;11.762;2022-09-25T13:21:11;2.20;;;1.70;;
17504;SDS011;8870;50.950;11.762;2022-09-25T13:26:54;2.50;;;1.70;;
17504;SDS011;8870;50.950;11.762;2022-09-25T13:32:18;2.00;;;1.80;;
17504;SDS011;8870;50.950;11.762;2022-09-25T13:38:07;1.92;;;1.70;;
17504;SDS011;8870;50.950;11.762;2022-09-25T13:43:48;3.13;;;2.30;;
17504;SDS011;8870;50.950;11.762;2022-09-25T13:50:03;3.42;;;2.30;;
17504;SDS011;8870;50.950;11.762;2022-09-25T13:55:35;4.45;;;1.95;;
17504;SDS011;8870;50.950;11.762;2022-09-25T14:00:58;2.72;;;2.38;;
17504;SDS011;8870;50.950;11.762;2022-09-25T14:06:30;4.22;;;2.25;;
17504;SDS011;8870;50.950;11.762;2022-09-25T14:11:54;3.65;;;2.60;;
17504;SDS011;8870;50.950;11.762;2022-09-25T14:17:35;2.67;;;2.38;;
17504;SDS011;8870;50.950;11.762;2022-09-25T14:22:54;3.05;;;2.33;;
17504;SDS011;8870;50.950;11.762;2022-09-25T14:28:31;2.75;;;2.38;;
17504;SDS011;8870;50.950;11.762;2022-09-25T14:39:56;2.25;;;2.05;;
17504;SDS011;8870;50.950;11.762;2022-09-25T14:45:33;4.32;;;2.20;;
17504;SDS011;8870;50.950;11.762;2022-09-25T14:51:27;2.63;;;2.30;;
17504;SDS011;8870;50.950;11.762;2022-09-25T14:56:54;4.32;;;2.20;;
17504;SDS011;8870;50.950;11.762;2022-09-25T15:02:30;3.00;;;2.10;;
17504;SDS011;8870;50.950;11.762;2022-09-25T15:07:53;2.53;;;1.83;;
17504;SDS011;8870;50.950;11.762;2022-09-25T15:13:25;1.98;;;1.77;;
17504;SDS011;8870;50.950;11.762;2022-09-25T15:18:59;2.15;;;1.95;;
17504;SDS011;8870;50.950;11.762;2022-09-25T15:24:22;4.88;;;2.45;;
17504;SDS011;8870;50.950;11.762;2022-09-25T15:29:56;2.55;;;1.70;;
17504;SDS011;8870;50.950;11.762;2022-09-25T15:35:20;2.63;;;1.90;;
17504;SDS011;8870;50.950;11.762;2022-09-25T15:40:53;2.83;;;2.05;;
17504;SDS011;8870;50.950;11.762;2022-09-25T15:52:12;2.47;;;1.98;;
17504;SDS011;8870;50.950;11.762;2022-09-25T15:57:34;2.70;;;2.10;;
17504;SDS011;8870;50.950;11.762;2022-09-25T16:03:09;2.80;;;1.63;;
17504;SDS011;8870;50.950;11.762;2022-09-25T16:08:47;1.85;;;1.58;;
17504;SDS011;8870;50.950;11.762;2022-09-25T16:14:20;2.78;;;1.58;;
17504;SDS011;8870;50.950;11.762;2022-09-25T16:19:42;1.80;;;1.48;;
17504;SDS011;8870;50.950;11.762;2022-09-25T16:25:18;3.28;;;1.75;;
17504;SDS011;8870;50.950;11.762;2022-09-25T16:30:41;2.92;;;2.50;;
17504;SDS011;8870;50.950;11.762;2022-09-25T16:36:17;2.88;;;2.63;;
17504;SDS011;8870;50.950;11.762;2022-09-25T16:41:39;3.05;;;2.75;;
17504;SDS011;8870;50.950;11.762;2022-09-25T16:47:17;3.15;;;2.58;;
17504;SDS011;8870;50.950;11.762;2022-09-25T16:52:37;3.35;;;2.45;;
17504;SDS011;8870;50.950;11.762;2022-09-25T16:58:12;4.72;;;2.70;;
17504;SDS011;8870;50.950;11.762;2022-09-25T17:03:31;3.30;;;2.60;;
17504;SDS011;8870;50.950;11.762;2022-09-25T17:09:14;4.43;;;2.85;;
17504;SDS011;8870;50.950;11.762;2022-09-25T17:14:36;4.30;;;2.60;;
17504;SDS011;8870;50.950;11.762;2022-09-25T17:20:08;6.53;;;3.00;;
17504;SDS011;8870;50.950;11.762;2022-09-25T17:25:34;8.05;;;3.88;;
17504;SDS011;8870;50.950;11.762;2022-09-25T17:31:18;9.18;;;3.97;;
17504;SDS011;8870;50.950;11.762;2022-09-25T17:36:38;6.63;;;4.30;;
17504;SDS011;8870;50.950;11.762;2022-09-25T17:42:09;6.38;;;4.18;;
17504;SDS011;8870;50.950;11.762;2022-09-25T17:47:37;5.30;;;4.63;;
17504;SDS011;8870;50.950;11.762;2022-09-25T17:53:13;5.97;;;4.88;;
17504;SDS011;8870;50.950;11.762;2022-09-25T17:58:34;5.68;;;4.25;;
17504;SDS011;8870;50.950;11.762;2022-09-25T18:04:11;5.60;;;4.65;;
17504;SDS011;8870;50.950;11.762;2022-09-25T18:09:42;7.50;;;4.90;;
17504;SDS011;8870;50.950;11.762;2022-09-25T18:15:13;6.00;;;4.90;;
17504;SDS011;8870;50.950;11.762;2022-09-25T18:20:36;6.13;;;5.00;;
17504;SDS011;8870;50.950;11.762;2022-09-25T18:26:23;5.88;;;4.80;;
17504;SDS011;8870;50.950;11.762;2022-09-25T18:37:20;5.53;;;4.80;;
17504;SDS011;8870;50.950;11.762;2022-09-25T18:42:38;5.10;;;4.60;;
17504;SDS011;8870;50.950;11.762;2022-09-25T18:48:10;7.57;;;5.50;;
17504;SDS011;8870;50.950;11.762;2022-09-25T18:53:31;7.85;;;6.20;;
17504;SDS011;8870;50.950;11.762;2022-09-25T18:59:02;8.10;;;6.60;;
17504;SDS011;8870;50.950;11.762;2022-09-25T19:04:22;8.30;;;5.90;;
17504;SDS011;8870;50.950;11.762;2022-09-25T19:09:55;4.85;;;3.88;;
17504;SDS011;8870;50.950;11.762;2022-09-25T19:15:15;5.05;;;3.70;;
17504;SDS011;8870;50.950;11.762;2022-09-25T19:20:49;4.57;;;3.47;;
17504;SDS011;8870;50.950;11.762;2022-09-25T19:26:12;3.50;;;3.20;;
17504;SDS011;8870;50.950;11.762;2022-09-25T19:31:46;3.10;;;2.70;;
17504;SDS011;8870;50.950;11.762;2022-09-25T19:37:06;3.45;;;2.40;;
17504;SDS011;8870;50.950;11.762;2022-09-25T19:42:41;4.63;;;3.03;;
17504;SDS011;8870;50.950;11.762;2022-09-25T19:48:01;3.05;;;2.45;;
17504;SDS011;8870;50.950;11.762;2022-09-25T19:53:31;3.13;;;2.50;;
17504;SDS011;8870;50.950;11.762;2022-09-25T19:58:52;4.13;;;2.80;;
17504;SDS011;8870;50.950;11.762;2022-09-25T20:04:28;3.43;;;2.67;;
17504;SDS011;8870;50.950;11.762;2022-09-25T20:09:46;4.10;;;2.83;;
17504;SDS011;8870;50.950;11.762;2022-09-25T20:20:34;3.95;;;3.05;;
17504;SDS011;8870;50.950;11.762;2022-09-25T20:26:05;3.10;;;2.53;;
17504;SDS011;8870;50.950;11.762;2022-09-25T20:31:28;3.47;;;2.90;;
17504;SDS011;8870;50.950;11.762;2022-09-25T20:37:01;5.85;;;2.92;;
17504;SDS011;8870;50.950;11.762;2022-09-25T20:42:19;4.72;;;3.35;;
17504;SDS011;8870;50.950;11.762;2022-09-25T20:47:53;3.92;;;3.53;;
17504;SDS011;8870;50.950;11.762;2022-09-25T20:53:12;3.40;;;3.10;;
17504;SDS011;8870;50.950;11.762;2022-09-25T20:58:43;4.60;;;3.28;;
17504;SDS011;8870;50.950;11.762;2022-09-25T21:09:40;3.78;;;3.20;;
17504;SDS011;8870;50.950;11.762;2022-09-25T21:14:59;4.30;;;3.30;;
17504;SDS011;8870;50.950;11.762;2022-09-25T21:20:33;4.78;;;3.60;;
17504;SDS011;8870;50.950;11.762;2022-09-25T21:25:53;4.85;;;3.95;;
17504;SDS011;8870;50.950;11.762;2022-09-25T21:31:26;6.57;;;4.47;;
17504;SDS011;8870;50.950;11.762;2022-09-25T21:36:48;5.65;;;4.22;;
17504;SDS011;8870;50.950;11.762;2022-09-25T21:42:19;5.03;;;4.43;;
17504;SDS011;8870;50.950;11.762;2022-09-25T21:47:39;8.10;;;4.50;;
17504;SDS011;8870;50.950;11.762;2022-09-25T21:53:12;5.25;;;4.45;;
17504;SDS011;8870;50.950;11.762;2022-09-25T21:58:31;6.03;;;4.88;;
17504;SDS011;8870;50.950;11.762;2022-09-25T22:04:06;6.82;;;5.35;;
17504;SDS011;8870;50.950;11.762;2022-09-25T22:09:29;7.03;;;6.00;;
17504;SDS011;8870;50.950;11.762;2022-09-25T22:15:00;7.03;;;6.18;;
17504;SDS011;8870;50.950;11.762;2022-09-25T22:20:20;9.93;;;6.57;;
17504;SDS011;8870;50.950;11.762;2022-09-25T22:25:53;9.35;;;6.38;;
17504;SDS011;8870;50.950;11.762;2022-09-25T22:31:12;8.25;;;6.30;;
17504;SDS011;8870;50.950;11.762;2022-09-25T22:36:45;7.43;;;6.30;;
17504;SDS011;8870;50.950;11.762;2022-09-25T22:42:09;9.02;;;6.57;;
17504;SDS011;8870;50.950;11.762;2022-09-25T22:47:40;7.13;;;6.20;;
17504;SDS011;8870;50.950;11.762;2022-09-25T22:52:59;7.20;;;6.15;;
17504;SDS011;8870;50.950;11.762;2022-09-25T22:58:32;7.85;;;6.43;;
17504;SDS011;8870;50.950;11.762;2022-09-25T23:03:54;9.38;;;6.05;;
17504;SDS011;8870;50.950;11.762;2022-09-25T23:09:25;7.75;;;6.20;;
17504;SDS011;8870;50.950;11.762;2022-09-25T23:14:46;8.73;;;6.30;;
17504;SDS011;8870;50.950;11.762;2022-09-25T23:20:17;7.40;;;6.25;;
17504;SDS011;8870;50.950;11.762;2022-09-25T23:25:37;6.53;;;5.70;;
17504;SDS011;8870;50.950;11.762;2022-09-25T23:31:12;6.50;;;5.50;;
17504;SDS011;8870;50.950;11.762;2022-09-25T23:36:32;7.40;;;5.57;;
17504;SDS011;8870;50.950;11.762;2022-09-25T23:42:03;6.05;;;4.60;;
17504;SDS011;8870;50.950;11.762;2022-09-25T23:47:23;5.97;;;4.50;;
17504;SDS011;8870;50.950;11.762;2022-09-25T23:52:54;6.05;;;4.47;;
17504;SDS011;8870;50.950;11.762;2022-09-25T23:58:14;8.02;;;5.00;;
